Chesapeake Highway — 3FPH4 — position and weather

sailwx.info

Track history (hours):
 
Tides and Currents Weather Stations Pressure Air Temp Water Temp Dewpoint Dewpoint Depression Visibility Wind Speed Wind Dir Waves Ship Positions

Chesapeake Highway

Last reported at 2018-Jun-23 04:18 UTC. Time now 2018-Jun-24 06:53 UTC.
Position N 34°35' W 073°01'.

Length 200 m; draft 7.8 m.

Type: Cargo ship. MMSI: 351733000.

Date/timePositionNaut miles runAvg speedWind from/ knotsBaromVisibWave heightAir tempDewpointWater temp
2018-Jun-23 04:18N 34°35' W 073°01'22215.8
2018-Jun-22 14:17N 38°16' W 073°36'516.0
2018-Jun-22 13:57N 38°21' W 073°36'816.2
2018-Jun-22 13:26N 38°29' W 073°38'716.5
2018-Jun-22 13:00N 38°36' W 073°39'916.5
2018-Jun-22 12:26N 38°46' W 073°41'716.9
2018-Jun-22 12:01N 38°53' W 073°42'816.8
2018-Jun-22 11:30N 39°01' W 073°43'816.9
2018-Jun-22 11:00N 39°09' W 073°44'816.7
2018-Jun-22 10:30N 39°18' W 073°46'916.9
2018-Jun-22 10:00N 39°26' W 073°47'816.7
2018-Jun-22 09:30N 39°34' W 073°48'916.8
2018-Jun-22 09:00N 39°43' W 073°50'816.7
2018-Jun-22 08:30N 39°51' W 073°50'816.8
2018-Jun-22 08:00N 39°59' W 073°49'816.4
2018-Jun-22 07:30N 40°08' W 073°49'611.5
2018-Jun-22 07:00N 40°13' W 073°49'4 7.2
2018-Jun-22 06:29N 40°17' W 073°49'3 7.0
2018-Jun-22 06:00N 40°21' W 073°49'4 7.2
2018-Jun-22 05:29N 40°24' W 073°49'4 8.2
2018-Jun-22 04:59N 40°28' W 073°52'510.7
2018-Jun-22 04:30N 40°30' W 073°57'510.2
2018-Jun-22 04:00N 40°34' W 074°02'611.0
2018-Jun-22 03:30N 40°39' W 074°05'3 6.9
2018-Jun-22 03:00N 40°39' W 074°09'3 5.7
2018-Jun-22 02:30N 40°41' W 074°08'0 0.1
2018-Jun-22 01:59N 40°41' W 074°08'0 0.0
2018-Jun-22 01:29N 40°41' W 074°08'0 0.0
2018-Jun-22 00:59N 40°41' W 074°08'0 0.0
2018-Jun-22 00:29N 40°41' W 074°08'0 0.0
2018-Jun-21 23:56N 40°41' W 074°08'0 0.0
2018-Jun-21 23:29N 40°41' W 074°08'0 0.0
2018-Jun-21 22:59N 40°41' W 074°08'0 0.0
2018-Jun-21 22:29N 40°41' W 074°08'0 0.0
2018-Jun-21 22:00N 40°41' W 074°08'0 0.0
2018-Jun-21 21:26N 40°41' W 074°08'0 0.0
2018-Jun-21 20:59N 40°41' W 074°08'0 0.0
2018-Jun-21 20:29N 40°41' W 074°08'0 0.0
2018-Jun-21 20:00N 40°41' W 074°08'0 0.0
2018-Jun-21 19:29N 40°41' W 074°08'0 0.0
2018-Jun-21 18:59N 40°41' W 074°08'0 0.0
2018-Jun-21 18:29N 40°41' W 074°08'0 0.0
2018-Jun-21 17:59N 40°41' W 074°08'0 0.0
2018-Jun-21 17:26N 40°41' W 074°08'0 0.0
2018-Jun-21 16:59N 40°41' W 074°08'0 0.0
2018-Jun-21 16:29N 40°41' W 074°08'0 0.0
2018-Jun-21 15:56N 40°41' W 074°08'0 0.0
2018-Jun-21 15:29N 40°41' W 074°08'0 0.0
2018-Jun-21 14:59N 40°41' W 074°08'0 0.0
2018-Jun-21 14:29N 40°41' W 074°08'0 0.0
2018-Jun-21 13:59N 40°41' W 074°08'0 0.0
2018-Jun-21 13:29N 40°41' W 074°08'0 0.0
2018-Jun-21 12:59N 40°41' W 074°08'0 0.0
2018-Jun-21 12:29N 40°41' W 074°08'0 0.0
2018-Jun-21 11:59N 40°41' W 074°08'0 0.0
2018-Jun-21 11:29N 40°41' W 074°08'0 0.0
2018-Jun-21 10:59N 40°41' W 074°08'0 0.0
2018-Jun-21 10:26N 40°41' W 074°08'0 0.0
2018-Jun-21 09:59N 40°41' W 074°08'0 0.0
2018-Jun-21 09:29N 40°41' W 074°08'0 0.0
2018-Jun-21 08:59N 40°41' W 074°08'0 0.0
2018-Jun-21 08:29N 40°41' W 074°08'0 0.0
2018-Jun-21 07:59N 40°41' W 074°08'0 0.0
2018-Jun-21 07:29N 40°41' W 074°08'0 0.0
2018-Jun-21 06:59N 40°41' W 074°08'0 0.0
2018-Jun-21 06:29N 40°41' W 074°08'0 0.0
2018-Jun-21 05:59N 40°41' W 074°08'0 0.0
2018-Jun-21 05:29N 40°41' W 074°08'0 0.0
2018-Jun-21 04:59N 40°41' W 074°08'0 0.0
2018-Jun-21 04:29N 40°41' W 074°08'0 0.0
2018-Jun-21 03:59N 40°41' W 074°08'0 0.0
2018-Jun-21 03:29N 40°41' W 074°08'0 0.0
2018-Jun-21 02:59N 40°41' W 074°08'0 0.0
2018-Jun-21 02:29N 40°41' W 074°08'0 0.0
2018-Jun-21 01:59N 40°41' W 074°08'0 0.0
2018-Jun-21 01:29N 40°41' W 074°08'0 0.1
2018-Jun-21 01:00N 40°41' W 074°08'3 5.1
2018-Jun-21 00:30N 40°39' W 074°09'3 6.0
2018-Jun-21 00:00N 40°39' W 074°05'4 7.6
2018-Jun-20 23:30N 40°36' W 074°02'5 9.4
2018-Jun-20 23:00N 40°31' W 074°00'5 9.6
2018-Jun-20 22:30N 40°29' W 073°55'5 9.3
2018-Jun-20 21:59N 40°27' W 073°49'4 8.1
2018-Jun-20 21:30N 40°24' W 073°47'6 9.3
2018-Jun-20 20:50N 40°17' W 073°46'5 9.7
2018-Jun-20 20:20N 40°12' W 073°45'3 9.7
2018-Jun-20 19:58N 40°09' W 073°44'5 9.7
2018-Jun-20 19:30N 40°05' W 073°44'5 9.8
2018-Jun-20 19:00N 39°60' W 073°43'5 9.8
2018-Jun-20 18:30N 39°55' W 073°42'816.0
2018-Jun-20 17:59N 39°47' W 073°41'816.1
2018-Jun-20 17:30N 39°39' W 073°40'816.3
2018-Jun-20 17:00N 39°31' W 073°40'916.4
2018-Jun-20 16:28N 39°22' W 073°40'816.7
2018-Jun-20 16:00N 39°14' W 073°40'1111.7
2018-Jun-20 15:01N 39°06' W 073°50'115.9
2018-Jun-20 14:57N 39°05' W 073°51'716.0
2018-Jun-20 14:30N 38°58' W 073°53'815.8
2018-Jun-20 14:01N 38°50' W 073°55'815.8
2018-Jun-20 13:29N 38°42' W 073°57'815.7
2018-Jun-20 13:00N 38°35' W 073°60'815.8
2018-Jun-20 12:30N 38°27' W 074°02'815.9
2018-Jun-20 12:00N 38°20' W 074°04'6915.7
2018-Jun-20 07:37N 37°12' W 074°24'315.8
2018-Jun-20 07:26N 37°09' W 074°24'9916.1
2018-Jun-20 01:18N 35°33' W 074°52'716.0
2018-Jun-20 00:50N 35°26' W 074°54'516.6
2018-Jun-20 00:30N 35°21' W 074°55'917.3
2018-Jun-20 00:00N 35°12' W 074°57'2719.3
2018-Jun-19 22:35N 34°50' W 075°16'220.1
2018-Jun-19 22:30N 34°48' W 075°17'1219.2
2018-Jun-19 21:52N 34°39' W 075°27'718.4
2018-Jun-19 21:31N 34°34' W 075°32'918.0
2018-Jun-19 21:01N 34°28' W 075°40'917.5
2018-Jun-19 20:30N 34°21' W 075°47'917.5
2018-Jun-19 20:00N 34°15' W 075°54'1518.5
2018-Jun-19 19:13N 34°04' W 076°06'418.9
2018-Jun-19 19:00N 34°01' W 076°10'1020.0
2018-Jun-19 18:29N 33°54' W 076°19'1021.0
2018-Jun-19 18:00N 33°47' W 076°27'1019.8
2018-Jun-19 17:31N 33°39' W 076°35'917.5
2018-Jun-19 17:01N 33°33' W 076°42'917.0
2018-Jun-19 16:29N 33°26' W 076°49'14817.1
2018-Jun-19 07:49N 31°38' W 078°50'2219.7
2018-Jun-19 06:43N 31°22' W 079°08'719.7
2018-Jun-19 06:21N 31°17' W 079°13'3419.4
2018-Jun-19 04:37N 30°59' W 079°47'420.0
2018-Jun-19 04:26N 30°58' W 079°51'  
2018-Jun-13 16:32N 09°32' W 079°50'116.2
2018-Jun-13 16:29N 09°31' W 079°51'715.3
2018-Jun-13 16:00N 09°25' W 079°55'5 9.5
2018-Jun-13 15:30N 09°20' W 079°55'3 5.7
2018-Jun-13 15:00N 09°17' W 079°55'1 1.7
2018-Jun-13 14:30N 09°17' W 079°55'0 0.7
2018-Jun-13 14:00N 09°16' W 079°55'0 0.7
2018-Jun-13 13:30N 09°16' W 079°55'1 2.6
2018-Jun-13 12:57N 09°15' W 079°55'4 8.6
2018-Jun-13 12:26N 09°11' W 079°53'  
Track history (hours):
 
Tides and Currents Weather Stations Pressure Air Temp Water Temp Dewpoint Dewpoint Depression Visibility Wind Speed Wind Dir Waves Ship Positions

Chesapeake Highway

Last reported at 2018-Jun-23 04:18 UTC. Time now 2018-Jun-24 06:53 UTC.
Position N 34°35' W 073°01'.

Length 200 m; draft 7.8 m.

Type: Cargo ship. MMSI: 351733000.

Date/timePositionNaut miles runAvg speedWind from/ knotsBaromVisibWave heightAir tempDewpointWater temp
2018-Jun-23 04:18N 34°35' W 073°01'22215.8
2018-Jun-22 14:17N 38°16' W 073°36'516.0
2018-Jun-22 13:57N 38°21' W 073°36'816.2
2018-Jun-22 13:26N 38°29' W 073°38'716.5
2018-Jun-22 13:00N 38°36' W 073°39'916.5
2018-Jun-22 12:26N 38°46' W 073°41'716.9
2018-Jun-22 12:01N 38°53' W 073°42'816.8
2018-Jun-22 11:30N 39°01' W 073°43'816.9
2018-Jun-22 11:00N 39°09' W 073°44'816.7
2018-Jun-22 10:30N 39°18' W 073°46'916.9
2018-Jun-22 10:00N 39°26' W 073°47'816.7
2018-Jun-22 09:30N 39°34' W 073°48'916.8
2018-Jun-22 09:00N 39°43' W 073°50'816.7
2018-Jun-22 08:30N 39°51' W 073°50'816.8
2018-Jun-22 08:00N 39°59' W 073°49'816.4
2018-Jun-22 07:30N 40°08' W 073°49'611.5
2018-Jun-22 07:00N 40°13' W 073°49'4 7.2
2018-Jun-22 06:29N 40°17' W 073°49'3 7.0
2018-Jun-22 06:00N 40°21' W 073°49'4 7.2
2018-Jun-22 05:29N 40°24' W 073°49'4 8.2
2018-Jun-22 04:59N 40°28' W 073°52'510.7
2018-Jun-22 04:30N 40°30' W 073°57'510.2
2018-Jun-22 04:00N 40°34' W 074°02'611.0
2018-Jun-22 03:30N 40°39' W 074°05'3 6.9
2018-Jun-22 03:00N 40°39' W 074°09'3 5.7
2018-Jun-22 02:30N 40°41' W 074°08'0 0.1
2018-Jun-22 01:59N 40°41' W 074°08'0 0.0
2018-Jun-22 01:29N 40°41' W 074°08'0 0.0
2018-Jun-22 00:59N 40°41' W 074°08'0 0.0
2018-Jun-22 00:29N 40°41' W 074°08'0 0.0
2018-Jun-21 23:56N 40°41' W 074°08'0 0.0
2018-Jun-21 23:29N 40°41' W 074°08'0 0.0
2018-Jun-21 22:59N 40°41' W 074°08'0 0.0
2018-Jun-21 22:29N 40°41' W 074°08'0 0.0
2018-Jun-21 22:00N 40°41' W 074°08'0 0.0
2018-Jun-21 21:26N 40°41' W 074°08'0 0.0
2018-Jun-21 20:59N 40°41' W 074°08'0 0.0
2018-Jun-21 20:29N 40°41' W 074°08'0 0.0
2018-Jun-21 20:00N 40°41' W 074°08'0 0.0
2018-Jun-21 19:29N 40°41' W 074°08'0 0.0
2018-Jun-21 18:59N 40°41' W 074°08'0 0.0
2018-Jun-21 18:29N 40°41' W 074°08'0 0.0
2018-Jun-21 17:59N 40°41' W 074°08'0 0.0
2018-Jun-21 17:26N 40°41' W 074°08'0 0.0
2018-Jun-21 16:59N 40°41' W 074°08'0 0.0
2018-Jun-21 16:29N 40°41' W 074°08'0 0.0
2018-Jun-21 15:56N 40°41' W 074°08'0 0.0
2018-Jun-21 15:29N 40°41' W 074°08'0 0.0
2018-Jun-21 14:59N 40°41' W 074°08'0 0.0
2018-Jun-21 14:29N 40°41' W 074°08'0 0.0
2018-Jun-21 13:59N 40°41' W 074°08'0 0.0
2018-Jun-21 13:29N 40°41' W 074°08'0 0.0
2018-Jun-21 12:59N 40°41' W 074°08'0 0.0
2018-Jun-21 12:29N 40°41' W 074°08'0 0.0
2018-Jun-21 11:59N 40°41' W 074°08'0 0.0
2018-Jun-21 11:29N 40°41' W 074°08'0 0.0
2018-Jun-21 10:59N 40°41' W 074°08'0 0.0
2018-Jun-21 10:26N 40°41' W 074°08'0 0.0
2018-Jun-21 09:59N 40°41' W 074°08'0 0.0
2018-Jun-21 09:29N 40°41' W 074°08'0 0.0
2018-Jun-21 08:59N 40°41' W 074°08'0 0.0
2018-Jun-21 08:29N 40°41' W 074°08'0 0.0
2018-Jun-21 07:59N 40°41' W 074°08'0 0.0
2018-Jun-21 07:29N 40°41' W 074°08'0 0.0
2018-Jun-21 06:59N 40°41' W 074°08'0 0.0
2018-Jun-21 06:29N 40°41' W 074°08'0 0.0
2018-Jun-21 05:59N 40°41' W 074°08'0 0.0
2018-Jun-21 05:29N 40°41' W 074°08'0 0.0
2018-Jun-21 04:59N 40°41' W 074°08'0 0.0
2018-Jun-21 04:29N 40°41' W 074°08'0 0.0
2018-Jun-21 03:59N 40°41' W 074°08'0 0.0
2018-Jun-21 03:29N 40°41' W 074°08'0 0.0
2018-Jun-21 02:59N 40°41' W 074°08'0 0.0
2018-Jun-21 02:29N 40°41' W 074°08'0 0.0
2018-Jun-21 01:59N 40°41' W 074°08'0 0.0
2018-Jun-21 01:29N 40°41' W 074°08'0 0.1
2018-Jun-21 01:00N 40°41' W 074°08'3 5.1
2018-Jun-21 00:30N 40°39' W 074°09'3 6.0
2018-Jun-21 00:00N 40°39' W 074°05'4 7.6
2018-Jun-20 23:30N 40°36' W 074°02'5 9.4
2018-Jun-20 23:00N 40°31' W 074°00'5 9.6
2018-Jun-20 22:30N 40°29' W 073°55'5 9.3
2018-Jun-20 21:59N 40°27' W 073°49'4 8.1
2018-Jun-20 21:30N 40°24' W 073°47'6 9.3
2018-Jun-20 20:50N 40°17' W 073°46'5 9.7
2018-Jun-20 20:20N 40°12' W 073°45'3 9.7
2018-Jun-20 19:58N 40°09' W 073°44'5 9.7
2018-Jun-20 19:30N 40°05' W 073°44'5 9.8
2018-Jun-20 19:00N 39°60' W 073°43'5 9.8
2018-Jun-20 18:30N 39°55' W 073°42'816.0
2018-Jun-20 17:59N 39°47' W 073°41'816.1
2018-Jun-20 17:30N 39°39' W 073°40'816.3
2018-Jun-20 17:00N 39°31' W 073°40'916.4
2018-Jun-20 16:28N 39°22' W 073°40'816.7
2018-Jun-20 16:00N 39°14' W 073°40'1111.7
2018-Jun-20 15:01N 39°06' W 073°50'115.9
2018-Jun-20 14:57N 39°05' W 073°51'716.0
2018-Jun-20 14:30N 38°58' W 073°53'815.8
2018-Jun-20 14:01N 38°50' W 073°55'815.8
2018-Jun-20 13:29N 38°42' W 073°57'815.7
2018-Jun-20 13:00N 38°35' W 073°60'815.8
2018-Jun-20 12:30N 38°27' W 074°02'815.9
2018-Jun-20 12:00N 38°20' W 074°04'6915.7
2018-Jun-20 07:37N 37°12' W 074°24'315.8
2018-Jun-20 07:26N 37°09' W 074°24'9916.1
2018-Jun-20 01:18N 35°33' W 074°52'716.0
2018-Jun-20 00:50N 35°26' W 074°54'516.6
2018-Jun-20 00:30N 35°21' W 074°55'917.3
2018-Jun-20 00:00N 35°12' W 074°57'2719.3
2018-Jun-19 22:35N 34°50' W 075°16'220.1
2018-Jun-19 22:30N 34°48' W 075°17'1219.2
2018-Jun-19 21:52N 34°39' W 075°27'718.4
2018-Jun-19 21:31N 34°34' W 075°32'918.0
2018-Jun-19 21:01N 34°28' W 075°40'917.5
2018-Jun-19 20:30N 34°21' W 075°47'917.5
2018-Jun-19 20:00N 34°15' W 075°54'1518.5
2018-Jun-19 19:13N 34°04' W 076°06'418.9
2018-Jun-19 19:00N 34°01' W 076°10'1020.0
2018-Jun-19 18:29N 33°54' W 076°19'1021.0
2018-Jun-19 18:00N 33°47' W 076°27'1019.8
2018-Jun-19 17:31N 33°39' W 076°35'917.5
2018-Jun-19 17:01N 33°33' W 076°42'917.0
2018-Jun-19 16:29N 33°26' W 076°49'14817.1
2018-Jun-19 07:49N 31°38' W 078°50'2219.7
2018-Jun-19 06:43N 31°22' W 079°08'719.7
2018-Jun-19 06:21N 31°17' W 079°13'3419.4
2018-Jun-19 04:37N 30°59' W 079°47'420.0
2018-Jun-19 04:26N 30°58' W 079°51'  
2018-Jun-13 16:32N 09°32' W 079°50'116.2
2018-Jun-13 16:29N 09°31' W 079°51'715.3
2018-Jun-13 16:00N 09°25' W 079°55'5 9.5
2018-Jun-13 15:30N 09°20' W 079°55'3 5.7
2018-Jun-13 15:00N 09°17' W 079°55'1 1.7
2018-Jun-13 14:30N 09°17' W 079°55'0 0.7
2018-Jun-13 14:00N 09°16' W 079°55'0 0.7
2018-Jun-13 13:30N 09°16' W 079°55'1 2.6
2018-Jun-13 12:57N 09°15' W 079°55'4 8.6
2018-Jun-13 12:26N 09°11' W 079°53'  

Dump ship's entire track history